Aviation Digital Data Service (ADDS)

Output produced by METARs form (1817 UTC 26 October 2021)
found at http://aviationweather.gov/metar/data/
 
Forecast for: EPCE (CEWICE AIRBASE , PL)
Text: TAF EPCE 261700Z 2618/2703 24008KT 9999 SCT008 BKN013
Forecast period: 1800 UTC 26 October 2021 to 0300 UTC 27 October 2021
Forecast type: FROM: standard forecast or significant change
Winds: from the WSW (240 degrees) at 9 MPH (8 knots; 4.1 m/s)
Visibility: 6 or more miles (10+ km)
Ceiling: 1300 feet AGL
Clouds: scattered clouds at 800 feet AGL
broken clouds at 1300 feet AGL
Weather: no significant weather forecast for this period
Text: TEMPO 2618/2703 3000 RADZ BR BKN004 BKN010
Forecast period: 1800 UTC 26 October 2021 to 0300 UTC 27 October 2021
Forecast type: TEMPORARY: The following changes expected for less than half the time period
Visibility: 1.86 miles (2.99 km)
Ceiling: 400 feet AGL
Clouds: broken clouds at 400 feet AGL
broken clouds at 1000 feet AGL
Weather: RA DZ BR  (moderate rain, moderate drizzle, mist)
Text: PROB30
Forecast period: 1800 UTC 26 October 2021 to 0300 UTC 27 October 2021
Forecast type: TEMPORARY: The following changes expected for less than half the time period
Visibility: 0.93 miles (1.50 km)
Ceiling: 200 feet AGL
Clouds: broken clouds at 200 feet AGL
Weather: BR  (mist)

Forecast for: EPDA (DARTOWEK NAVAL , PL)
Text: TAF EPDA 261700Z 2618/2703 23008KT 8000 BKN020
Forecast period: 1800 UTC 26 October 2021 to 0300 UTC 27 October 2021
Forecast type: FROM: standard forecast or significant change
Winds: from the SW (230 degrees) at 9 MPH (8 knots; 4.1 m/s)
Visibility: 5 miles (8 km)
Ceiling: 2000 feet AGL
Clouds: broken clouds at 2000 feet AGL
Weather: no significant weather forecast for this period
Text: PROB30
Forecast period: 1800 UTC 26 October 2021 to 0300 UTC 27 October 2021
Forecast type: TEMPORARY: The following changes expected for less than half the time period
Visibility: 3 miles (5 km)
Ceiling: 500 feet AGL
Clouds: broken clouds at 500 feet AGL
overcast cloud deck at 1000 feet AGL
Weather: SHRA  (rain showers)

Forecast for: EPDE (DEBLIN-IRENA , PL)
Text: TAF EPDE 261428Z 2615/2624 22006KT CAVOK
Forecast period: 1500 to 1800 UTC 26 October 2021
Forecast type: FROM: standard forecast or significant change
Winds: from the SW (220 degrees) at 7 MPH (6 knots; 3.1 m/s)
Visibility: 6 or more miles (10+ km)
Ceiling: unknown
Clouds: missing
Weather: NSW  (no significant weather)
Text: BECMG 2618/2620 27008KT BKN040 OVC100
Forecast period: 1800 UTC 26 October 2021 to 0000 UTC 27 October 2021
Forecast type: BECOMING: Conditions expected to become as follows by 2000 UTC 26 October 2021
Winds: from the W (270 degrees) at 9 MPH (8 knots; 4.1 m/s)
Visibility: 6 or more miles (10+ km)
Ceiling: 4000 feet AGL
Clouds: broken clouds at 4000 feet AGL
overcast cloud deck at 10000 feet AGL
Weather: NSW  (no significant weather)

Forecast for: EPKS (KRZESINY ARPT , PL)
Text: TAF EPKS 261700Z 2618/2703 24008KT 9999 BKN025
Forecast period: 1800 UTC 26 October 2021 to 0300 UTC 27 October 2021
Forecast type: FROM: standard forecast or significant change
Winds: from the WSW (240 degrees) at 9 MPH (8 knots; 4.1 m/s)
Visibility: 6 or more miles (10+ km)
Ceiling: 2500 feet AGL
Clouds: broken clouds at 2500 feet AGL
Weather: no significant weather forecast for this period
Text: PROB30 2618/2703 SCT009 BKN013
Forecast period: 1800 UTC 26 October 2021 to 0300 UTC 27 October 2021
Forecast type: PROBABLE: 30 percent likelihood of the following during this time
Visibility: missing
Ceiling: 1300 feet AGL
Clouds: scattered clouds at 900 feet AGL
broken clouds at 1300 feet AGL
Weather: no significant weather forecast for this period

Forecast for: EPLK (LASK ARPT , PL)
Text: TAF EPLK 261700Z 2618/2703 23006KT 9999 BKN033
Forecast period: 1800 UTC 26 October 2021 to 0300 UTC 27 October 2021
Forecast type: FROM: standard forecast or significant change
Winds: from the SW (230 degrees) at 7 MPH (6 knots; 3.1 m/s)
Visibility: 6 or more miles (10+ km)
Ceiling: 3300 feet AGL
Clouds: broken clouds at 3300 feet AGL
Weather: no significant weather forecast for this period
Text: TEMPO 2618/2703 BKN020
Forecast period: 1800 UTC 26 October 2021 to 0300 UTC 27 October 2021
Forecast type: TEMPORARY: The following changes expected for less than half the time period
Visibility: missing
Ceiling: 2000 feet AGL
Clouds: broken clouds at 2000 feet AGL
Weather: no significant weather forecast for this period

Forecast for: EPMB (MALBORK , PL)
Text: TAF EPMB 261700Z 2618/2703 21008KT 9999 BKN025
Forecast period: 1800 UTC 26 October 2021 to 0300 UTC 27 October 2021
Forecast type: FROM: standard forecast or significant change
Winds: from the SSW (210 degrees) at 9 MPH (8 knots; 4.1 m/s)
Visibility: 6 or more miles (10+ km)
Ceiling: 2500 feet AGL
Clouds: broken clouds at 2500 feet AGL
Weather: no significant weather forecast for this period
Text: TEMPO 2618/2620 -RA SCT008 BKN015CB
Forecast period: 1800 to 2000 UTC 26 October 2021
Forecast type: TEMPORARY: The following changes expected for less than half the time period
Visibility: missing
Ceiling: 1500 feet AGL
Clouds: scattered clouds at 800 feet AGL
broken clouds at 1500 feet AGL
Weather: -RA  (light rain)
Text: PROB30
Forecast period: 1800 UTC 26 October 2021 to 0300 UTC 27 October 2021
Forecast type: TEMPORARY: The following changes expected for less than half the time period
Visibility: 3 miles (5 km)
Ceiling: 800 feet AGL
Clouds: broken clouds at 800 feet AGL
overcast cloud deck at 1000 feet AGL
Weather: BR  (mist)

Forecast for: EPMI (TWELTH AIRBASE , PL)
Text: TAF EPMI 261700Z 2618/2703 21006KT 8000 BKN020
Forecast period: 1800 UTC 26 October 2021 to 0300 UTC 27 October 2021
Forecast type: FROM: standard forecast or significant change
Winds: from the SSW (210 degrees) at 7 MPH (6 knots; 3.1 m/s)
Visibility: 5 miles (8 km)
Ceiling: 2000 feet AGL
Clouds: broken clouds at 2000 feet AGL
Weather: no significant weather forecast for this period
Text: TEMPO 2618/2703 4000 RADZ BR BKN004 OVC010
Forecast period: 1800 UTC 26 October 2021 to 0300 UTC 27 October 2021
Forecast type: TEMPORARY: The following changes expected for less than half the time period
Visibility: 2.49 miles (4.01 km)
Ceiling: 400 feet AGL
Clouds: broken clouds at 400 feet AGL
overcast cloud deck at 1000 feet AGL
Weather: RA DZ BR  (moderate rain, moderate drizzle, mist)

Forecast for: EPOK (GDYNIA-BABIE DO , PL)
Text: TAF EPOK 261700Z 2618/2703 25010KT 9999 BKN014
Forecast period: 1800 UTC 26 October 2021 to 0300 UTC 27 October 2021
Forecast type: FROM: standard forecast or significant change
Winds: from the WSW (250 degrees) at 12 MPH (10 knots; 5.1 m/s)
Visibility: 6 or more miles (10+ km)
Ceiling: 1400 feet AGL
Clouds: broken clouds at 1400 feet AGL
Weather: no significant weather forecast for this period
Text: TEMPO 2618/2623 5000 RA BR BKN008
Forecast period: 1800 to 2300 UTC 26 October 2021
Forecast type: TEMPORARY: The following changes expected for less than half the time period
Visibility: 3 miles (5 km)
Ceiling: 800 feet AGL
Clouds: broken clouds at 800 feet AGL
Weather: RA BR  (moderate rain, mist)
Text: PROB30
Forecast period: 1800 to 2100 UTC 26 October 2021
Forecast type: TEMPORARY: The following changes expected for less than half the time period
Visibility: 2.49 miles (4.01 km)
Ceiling: 800 feet AGL
Clouds: broken clouds at 800 feet AGL
broken clouds at 1200 feet AGL
Weather: RA SHRA  (moderate rain, rain showers)

Forecast for: EPPW (POWIDZ AIRPORT , PL)
Text: TAF EPPW 261700Z 2618/2703 26008KT 9999 BKN030
Forecast period: 1800 UTC 26 October 2021 to 0300 UTC 27 October 2021
Forecast type: FROM: standard forecast or significant change
Winds: from the W (260 degrees) at 9 MPH (8 knots; 4.1 m/s)
Visibility: 6 or more miles (10+ km)
Ceiling: 3000 feet AGL
Clouds: broken clouds at 3000 feet AGL
Weather: no significant weather forecast for this period
Text: PROB30
Forecast period: 2100 UTC 26 October 2021 to 0300 UTC 27 October 2021
Forecast type: TEMPORARY: The following changes expected for less than half the time period
Visibility: 3 miles (5 km)
Ceiling: 1000 feet AGL
Clouds: scattered clouds at 800 feet AGL
broken clouds at 1000 feet AGL
Weather: BR  (mist)

Forecast for: EPRA (RADOM AIRPORT , PL)
Text: TAF EPRA 261700Z 2618/2703 21008KT 8000 SCT040
Forecast period: 1800 to 2100 UTC 26 October 2021
Forecast type: FROM: standard forecast or significant change
Winds: from the SSW (210 degrees) at 9 MPH (8 knots; 4.1 m/s)
Visibility: 5 miles (8 km)
Ceiling: at least 12,000 feet AGL
Clouds: scattered clouds at 4000 feet AGL
Weather: no significant weather forecast for this period
Text: BECMG 2621/2623 28008KT BKN020
Forecast period: 2100 UTC 26 October 2021 to 0300 UTC 27 October 2021
Forecast type: BECOMING: Conditions expected to become as follows by 2300 UTC 26 October 2021
Winds: from the W (280 degrees) at 9 MPH (8 knots; 4.1 m/s)
Visibility: 5 miles (8 km)
Ceiling: 2000 feet AGL
Clouds: broken clouds at 2000 feet AGL
Weather: no significant weather forecast for this period
Text: PROB30
Forecast period: 0100 to 0300 UTC 27 October 2021
Forecast type: TEMPORARY: The following changes expected for less than half the time period
Visibility: 2.49 miles (4.01 km)
Ceiling: 1400 feet AGL
Clouds: scattered clouds at 800 feet AGL
broken clouds at 1400 feet AGL
Weather: -RA BR  (light rain, mist)

Forecast for: EPSN (SWIDWIN ARPT , PL)
Text: TAF EPSN 261700Z 2618/2703 23006KT 8000 SCT020 BKN080
Forecast period: 1800 UTC 26 October 2021 to 0300 UTC 27 October 2021
Forecast type: FROM: standard forecast or significant change
Winds: from the SW (230 degrees) at 7 MPH (6 knots; 3.1 m/s)
Visibility: 5 miles (8 km)
Ceiling: 8000 feet AGL
Clouds: scattered clouds at 2000 feet AGL
broken clouds at 8000 feet AGL
Weather: no significant weather forecast for this period
Text: TEMPO 2620/2703 5000 BR BKN020
Forecast period: 2000 UTC 26 October 2021 to 0300 UTC 27 October 2021
Forecast type: TEMPORARY: The following changes expected for less than half the time period
Visibility: 3 miles (5 km)
Ceiling: 2000 feet AGL
Clouds: broken clouds at 2000 feet AGL
Weather: BR  (mist)
Text: PROB30 2700/2703 3000 DZ BR SCT006 BKN015
Forecast period: 0000 to 0300 UTC 27 October 2021
Forecast type: PROBABLE: 30 percent likelihood of the following during this time
Visibility: 1.86 miles (2.99 km)
Ceiling: 1500 feet AGL
Clouds: scattered clouds at 600 feet AGL
broken clouds at 1500 feet AGL
Weather: DZ BR  (moderate drizzle, mist)